sensor_id;sensor_type;location;lat;lon;timestamp;P1;durP1;ratioP1;P2;durP2;ratioP2
11835;SDS011;5977;51.972;7.640;2023-05-10T00:00:12;149.30;;;49.00;;
11835;SDS011;5977;51.972;7.640;2023-05-10T00:02:41;149.90;;;49.63;;
11835;SDS011;5977;51.972;7.640;2023-05-10T00:05:09;149.10;;;49.03;;
11835;SDS011;5977;51.972;7.640;2023-05-10T00:07:37;150.40;;;49.80;;
11835;SDS011;5977;51.972;7.640;2023-05-10T00:10:05;149.73;;;49.43;;
11835;SDS011;5977;51.972;7.640;2023-05-10T00:12:34;150.00;;;49.77;;
11835;SDS011;5977;51.972;7.640;2023-05-10T00:15:02;149.27;;;49.10;;
11835;SDS011;5977;51.972;7.640;2023-05-10T00:17:31;149.87;;;49.70;;
11835;SDS011;5977;51.972;7.640;2023-05-10T00:19:59;149.50;;;49.27;;
11835;SDS011;5977;51.972;7.640;2023-05-10T00:22:27;149.27;;;49.10;;
11835;SDS011;5977;51.972;7.640;2023-05-10T00:24:55;149.93;;;49.43;;
11835;SDS011;5977;51.972;7.640;2023-05-10T00:27:23;150.83;;;49.90;;
11835;SDS011;5977;51.972;7.640;2023-05-10T00:29:51;149.70;;;49.30;;
11835;SDS011;5977;51.972;7.640;2023-05-10T00:32:18;149.67;;;49.47;;
11835;SDS011;5977;51.972;7.640;2023-05-10T00:34:48;149.70;;;49.53;;
11835;SDS011;5977;51.972;7.640;2023-05-10T00:37:16;150.27;;;49.53;;
11835;SDS011;5977;51.972;7.640;2023-05-10T00:39:44;149.57;;;49.50;;
11835;SDS011;5977;51.972;7.640;2023-05-10T00:42:12;150.27;;;49.67;;
11835;SDS011;5977;51.972;7.640;2023-05-10T00:44:40;149.77;;;49.50;;
11835;SDS011;5977;51.972;7.640;2023-05-10T00:47:08;150.30;;;49.73;;
11835;SDS011;5977;51.972;7.640;2023-05-10T00:49:38;149.90;;;49.63;;
11835;SDS011;5977;51.972;7.640;2023-05-10T00:52:08;149.53;;;49.27;;
11835;SDS011;5977;51.972;7.640;2023-05-10T00:54:36;149.17;;;49.23;;
11835;SDS011;5977;51.972;7.640;2023-05-10T00:57:04;150.17;;;49.57;;
11835;SDS011;5977;51.972;7.640;2023-05-10T00:59:32;148.73;;;48.93;;
11835;SDS011;5977;51.972;7.640;2023-05-10T01:02:00;149.47;;;49.30;;
11835;SDS011;5977;51.972;7.640;2023-05-10T01:04:28;150.07;;;49.60;;
11835;SDS011;5977;51.972;7.640;2023-05-10T01:06:57;149.40;;;49.37;;
11835;SDS011;5977;51.972;7.640;2023-05-10T01:09:26;149.13;;;49.13;;
11835;SDS011;5977;51.972;7.640;2023-05-10T01:11:54;149.30;;;49.27;;
11835;SDS011;5977;51.972;7.640;2023-05-10T01:14:24;149.20;;;49.33;;
11835;SDS011;5977;51.972;7.640;2023-05-10T01:16:54;149.37;;;49.27;;
11835;SDS011;5977;51.972;7.640;2023-05-10T01:19:25;150.37;;;49.73;;
11835;SDS011;5977;51.972;7.640;2023-05-10T01:22:04;149.70;;;49.50;;
11835;SDS011;5977;51.972;7.640;2023-05-10T01:24:51;149.37;;;49.33;;
11835;SDS011;5977;51.972;7.640;2023-05-10T01:30:58;149.43;;;49.23;;
11835;SDS011;5977;51.972;7.640;2023-05-10T01:33:38;149.97;;;49.83;;
11835;SDS011;5977;51.972;7.640;2023-05-10T01:36:13;149.87;;;49.47;;
11835;SDS011;5977;51.972;7.640;2023-05-10T01:38:53;149.73;;;49.37;;
11835;SDS011;5977;51.972;7.640;2023-05-10T01:41:31;149.50;;;49.40;;
11835;SDS011;5977;51.972;7.640;2023-05-10T01:44:09;149.57;;;49.40;;
11835;SDS011;5977;51.972;7.640;2023-05-10T01:46:46;150.23;;;49.67;;
11835;SDS011;5977;51.972;7.640;2023-05-10T01:49:21;149.60;;;49.27;;
11835;SDS011;5977;51.972;7.640;2023-05-10T01:51:54;149.87;;;49.40;;
11835;SDS011;5977;51.972;7.640;2023-05-10T01:54:27;150.00;;;49.57;;
11835;SDS011;5977;51.972;7.640;2023-05-10T01:56:58;149.97;;;49.70;;
11835;SDS011;5977;51.972;7.640;2023-05-10T01:59:30;149.33;;;49.37;;
11835;SDS011;5977;51.972;7.640;2023-05-10T02:02:02;149.37;;;49.30;;
11835;SDS011;5977;51.972;7.640;2023-05-10T02:04:33;149.83;;;49.57;;
11835;SDS011;5977;51.972;7.640;2023-05-10T02:07:04;150.10;;;49.63;;
11835;SDS011;5977;51.972;7.640;2023-05-10T02:09:32;149.80;;;49.37;;
11835;SDS011;5977;51.972;7.640;2023-05-10T02:12:02;149.10;;;49.10;;
11835;SDS011;5977;51.972;7.640;2023-05-10T02:14:34;149.23;;;49.23;;
11835;SDS011;5977;51.972;7.640;2023-05-10T02:17:04;149.17;;;49.23;;
11835;SDS011;5977;51.972;7.640;2023-05-10T02:19:35;150.07;;;49.67;;
11835;SDS011;5977;51.972;7.640;2023-05-10T02:22:05;149.73;;;49.47;;
11835;SDS011;5977;51.972;7.640;2023-05-10T02:24:35;149.67;;;49.27;;
11835;SDS011;5977;51.972;7.640;2023-05-10T02:27:04;149.37;;;49.20;;
11835;SDS011;5977;51.972;7.640;2023-05-10T02:29:34;149.20;;;49.27;;
11835;SDS011;5977;51.972;7.640;2023-05-10T02:32:03;149.10;;;49.10;;
11835;SDS011;5977;51.972;7.640;2023-05-10T02:34:32;149.37;;;49.20;;
11835;SDS011;5977;51.972;7.640;2023-05-10T02:37:02;149.57;;;49.37;;
11835;SDS011;5977;51.972;7.640;2023-05-10T02:39:31;149.03;;;49.07;;
11835;SDS011;5977;51.972;7.640;2023-05-10T02:42:00;149.73;;;49.63;;
11835;SDS011;5977;51.972;7.640;2023-05-10T02:44:28;149.40;;;49.17;;
11835;SDS011;5977;51.972;7.640;2023-05-10T02:46:57;149.33;;;49.17;;
11835;SDS011;5977;51.972;7.640;2023-05-10T02:49:26;150.13;;;49.57;;
11835;SDS011;5977;51.972;7.640;2023-05-10T02:51:56;149.83;;;49.53;;
11835;SDS011;5977;51.972;7.640;2023-05-10T02:54:30;150.07;;;49.57;;
11835;SDS011;5977;51.972;7.640;2023-05-10T02:57:03;149.70;;;49.37;;
11835;SDS011;5977;51.972;7.640;2023-05-10T02:59:33;149.40;;;49.27;;
11835;SDS011;5977;51.972;7.640;2023-05-10T03:02:01;148.80;;;48.77;;
11835;SDS011;5977;51.972;7.640;2023-05-10T03:04:30;149.33;;;49.17;;
11835;SDS011;5977;51.972;7.640;2023-05-10T03:06:59;149.87;;;49.43;;
11835;SDS011;5977;51.972;7.640;2023-05-10T03:09:27;149.43;;;49.33;;
11835;SDS011;5977;51.972;7.640;2023-05-10T03:11:59;149.00;;;49.07;;
11835;SDS011;5977;51.972;7.640;2023-05-10T03:14:34;149.23;;;49.03;;
11835;SDS011;5977;51.972;7.640;2023-05-10T03:17:15;149.47;;;49.07;;
11835;SDS011;5977;51.972;7.640;2023-05-10T03:19:52;149.27;;;49.20;;
11835;SDS011;5977;51.972;7.640;2023-05-10T03:22:25;149.43;;;49.33;;
11835;SDS011;5977;51.972;7.640;2023-05-10T03:24:55;149.17;;;49.37;;
11835;SDS011;5977;51.972;7.640;2023-05-10T03:27:29;149.23;;;49.20;;
11835;SDS011;5977;51.972;7.640;2023-05-10T03:29:59;149.27;;;49.27;;
11835;SDS011;5977;51.972;7.640;2023-05-10T03:32:36;149.67;;;49.37;;
11835;SDS011;5977;51.972;7.640;2023-05-10T03:35:06;148.93;;;48.93;;
11835;SDS011;5977;51.972;7.640;2023-05-10T03:37:37;148.93;;;49.00;;
11835;SDS011;5977;51.972;7.640;2023-05-10T03:40:05;148.77;;;48.87;;
11835;SDS011;5977;51.972;7.640;2023-05-10T03:42:37;150.37;;;49.63;;
11835;SDS011;5977;51.972;7.640;2023-05-10T03:45:05;149.43;;;49.03;;
11835;SDS011;5977;51.972;7.640;2023-05-10T03:47:36;149.20;;;49.17;;
11835;SDS011;5977;51.972;7.640;2023-05-10T03:50:08;149.33;;;49.10;;
11835;SDS011;5977;51.972;7.640;2023-05-10T03:52:38;148.90;;;48.97;;
11835;SDS011;5977;51.972;7.640;2023-05-10T03:55:07;149.43;;;49.20;;
11835;SDS011;5977;51.972;7.640;2023-05-10T03:57:36;149.60;;;49.30;;
11835;SDS011;5977;51.972;7.640;2023-05-10T04:00:05;149.63;;;49.20;;
11835;SDS011;5977;51.972;7.640;2023-05-10T04:02:40;149.30;;;49.07;;
11835;SDS011;5977;51.972;7.640;2023-05-10T04:05:14;149.07;;;49.03;;
11835;SDS011;5977;51.972;7.640;2023-05-10T04:07:44;149.17;;;49.07;;
11835;SDS011;5977;51.972;7.640;2023-05-10T04:10:13;149.23;;;49.17;;
11835;SDS011;5977;51.972;7.640;2023-05-10T04:12:42;148.90;;;49.10;;
11835;SDS011;5977;51.972;7.640;2023-05-10T04:15:10;149.73;;;49.27;;
11835;SDS011;5977;51.972;7.640;2023-05-10T04:17:38;148.63;;;48.80;;
11835;SDS011;5977;51.972;7.640;2023-05-10T04:20:06;149.57;;;49.23;;
11835;SDS011;5977;51.972;7.640;2023-05-10T04:22:35;149.30;;;49.13;;
11835;SDS011;5977;51.972;7.640;2023-05-10T04:25:05;148.93;;;49.17;;
11835;SDS011;5977;51.972;7.640;2023-05-10T04:27:33;148.53;;;48.93;;
11835;SDS011;5977;51.972;7.640;2023-05-10T04:30:01;149.50;;;49.17;;
11835;SDS011;5977;51.972;7.640;2023-05-10T04:32:29;149.27;;;49.23;;
11835;SDS011;5977;51.972;7.640;2023-05-10T04:34:57;149.60;;;49.30;;
11835;SDS011;5977;51.972;7.640;2023-05-10T04:37:25;149.10;;;49.00;;
11835;SDS011;5977;51.972;7.640;2023-05-10T04:39:53;148.63;;;48.93;;
11835;SDS011;5977;51.972;7.640;2023-05-10T04:42:22;149.30;;;49.43;;
11835;SDS011;5977;51.972;7.640;2023-05-10T04:44:50;149.03;;;49.20;;
11835;SDS011;5977;51.972;7.640;2023-05-10T04:47:18;149.30;;;49.17;;
11835;SDS011;5977;51.972;7.640;2023-05-10T04:49:46;149.57;;;49.40;;
11835;SDS011;5977;51.972;7.640;2023-05-10T04:52:14;149.13;;;49.23;;
11835;SDS011;5977;51.972;7.640;2023-05-10T04:54:43;149.37;;;49.40;;
11835;SDS011;5977;51.972;7.640;2023-05-10T04:57:11;149.23;;;49.03;;
11835;SDS011;5977;51.972;7.640;2023-05-10T04:59:40;149.27;;;49.27;;
11835;SDS011;5977;51.972;7.640;2023-05-10T05:02:08;149.47;;;49.23;;
11835;SDS011;5977;51.972;7.640;2023-05-10T05:04:36;149.10;;;49.13;;
11835;SDS011;5977;51.972;7.640;2023-05-10T05:07:04;149.30;;;49.17;;
11835;SDS011;5977;51.972;7.640;2023-05-10T05:09:32;149.23;;;49.23;;
11835;SDS011;5977;51.972;7.640;2023-05-10T05:12:00;148.73;;;49.00;;
11835;SDS011;5977;51.972;7.640;2023-05-10T05:14:27;149.17;;;49.23;;
11835;SDS011;5977;51.972;7.640;2023-05-10T05:16:57;149.13;;;49.27;;
11835;SDS011;5977;51.972;7.640;2023-05-10T05:19:25;148.67;;;48.87;;
11835;SDS011;5977;51.972;7.640;2023-05-10T05:21:53;149.27;;;49.17;;
11835;SDS011;5977;51.972;7.640;2023-05-10T05:24:21;148.87;;;49.07;;
11835;SDS011;5977;51.972;7.640;2023-05-10T05:26:49;148.73;;;48.87;;
11835;SDS011;5977;51.972;7.640;2023-05-10T05:29:17;149.17;;;49.23;;
11835;SDS011;5977;51.972;7.640;2023-05-10T05:31:45;149.43;;;49.07;;
11835;SDS011;5977;51.972;7.640;2023-05-10T05:34:14;149.10;;;49.40;;
11835;SDS011;5977;51.972;7.640;2023-05-10T05:36:42;149.27;;;49.27;;
11835;SDS011;5977;51.972;7.640;2023-05-10T05:39:10;149.37;;;49.20;;
11835;SDS011;5977;51.972;7.640;2023-05-10T05:41:38;149.53;;;49.37;;
11835;SDS011;5977;51.972;7.640;2023-05-10T05:44:05;148.90;;;49.07;;
11835;SDS011;5977;51.972;7.640;2023-05-10T05:46:33;149.57;;;49.33;;
11835;SDS011;5977;51.972;7.640;2023-05-10T05:49:01;148.43;;;48.83;;
11835;SDS011;5977;51.972;7.640;2023-05-10T05:51:31;149.77;;;49.40;;
11835;SDS011;5977;51.972;7.640;2023-05-10T05:53:58;148.93;;;49.20;;
11835;SDS011;5977;51.972;7.640;2023-05-10T05:56:26;149.30;;;49.20;;
11835;SDS011;5977;51.972;7.640;2023-05-10T05:58:54;148.37;;;48.93;;
11835;SDS011;5977;51.972;7.640;2023-05-10T06:01:22;149.40;;;49.27;;
11835;SDS011;5977;51.972;7.640;2023-05-10T06:03:50;149.27;;;49.23;;
11835;SDS011;5977;51.972;7.640;2023-05-10T06:06:18;148.57;;;48.77;;
11835;SDS011;5977;51.972;7.640;2023-05-10T06:08:48;148.90;;;48.90;;
11835;SDS011;5977;51.972;7.640;2023-05-10T06:11:16;148.50;;;48.77;;
11835;SDS011;5977;51.972;7.640;2023-05-10T06:13:44;148.47;;;48.67;;
11835;SDS011;5977;51.972;7.640;2023-05-10T06:16:12;148.80;;;48.87;;
11835;SDS011;5977;51.972;7.640;2023-05-10T06:18:40;148.40;;;48.60;;
11835;SDS011;5977;51.972;7.640;2023-05-10T06:21:08;148.37;;;48.60;;
11835;SDS011;5977;51.972;7.640;2023-05-10T06:23:35;148.67;;;48.77;;
11835;SDS011;5977;51.972;7.640;2023-05-10T06:26:05;148.70;;;48.90;;
11835;SDS011;5977;51.972;7.640;2023-05-10T06:28:33;147.93;;;48.37;;
11835;SDS011;5977;51.972;7.640;2023-05-10T06:31:03;148.50;;;48.77;;
11835;SDS011;5977;51.972;7.640;2023-05-10T06:33:31;148.37;;;48.70;;
11835;SDS011;5977;51.972;7.640;2023-05-10T06:35:59;148.60;;;48.87;;
11835;SDS011;5977;51.972;7.640;2023-05-10T06:38:27;147.93;;;48.43;;
11835;SDS011;5977;51.972;7.640;2023-05-10T06:40:55;147.67;;;48.33;;
11835;SDS011;5977;51.972;7.640;2023-05-10T06:43:24;148.10;;;48.57;;
11835;SDS011;5977;51.972;7.640;2023-05-10T06:45:52;148.17;;;48.40;;
11835;SDS011;5977;51.972;7.640;2023-05-10T06:48:20;148.57;;;48.73;;
11835;SDS011;5977;51.972;7.640;2023-05-10T06:50:48;147.73;;;48.40;;
11835;SDS011;5977;51.972;7.640;2023-05-10T06:53:17;148.13;;;48.50;;
11835;SDS011;5977;51.972;7.640;2023-05-10T06:55:45;148.13;;;48.43;;
11835;SDS011;5977;51.972;7.640;2023-05-10T06:58:13;147.20;;;48.10;;
11835;SDS011;5977;51.972;7.640;2023-05-10T07:00:42;147.37;;;48.10;;
11835;SDS011;5977;51.972;7.640;2023-05-10T07:03:11;147.37;;;48.20;;
11835;SDS011;5977;51.972;7.640;2023-05-10T07:05:39;147.70;;;48.50;;
11835;SDS011;5977;51.972;7.640;2023-05-10T07:08:07;147.13;;;47.97;;
11835;SDS011;5977;51.972;7.640;2023-05-10T07:10:35;147.70;;;48.20;;
11835;SDS011;5977;51.972;7.640;2023-05-10T07:13:03;147.93;;;48.37;;
11835;SDS011;5977;51.972;7.640;2023-05-10T07:15:31;148.20;;;48.67;;
11835;SDS011;5977;51.972;7.640;2023-05-10T07:18:01;147.83;;;48.40;;
11835;SDS011;5977;51.972;7.640;2023-05-10T07:20:30;147.40;;;48.27;;
11835;SDS011;5977;51.972;7.640;2023-05-10T07:22:58;148.00;;;48.57;;
11835;SDS011;5977;51.972;7.640;2023-05-10T07:25:26;148.43;;;48.73;;
11835;SDS011;5977;51.972;7.640;2023-05-10T07:27:54;148.17;;;48.67;;
11835;SDS011;5977;51.972;7.640;2023-05-10T07:30:22;148.23;;;48.77;;
11835;SDS011;5977;51.972;7.640;2023-05-10T07:32:50;148.03;;;48.57;;
11835;SDS011;5977;51.972;7.640;2023-05-10T07:35:20;147.93;;;48.50;;
11835;SDS011;5977;51.972;7.640;2023-05-10T07:37:48;148.83;;;49.03;;
11835;SDS011;5977;51.972;7.640;2023-05-10T07:40:16;147.80;;;48.50;;
11835;SDS011;5977;51.972;7.640;2023-05-10T07:42:44;148.23;;;48.63;;
11835;SDS011;5977;51.972;7.640;2023-05-10T07:45:12;148.50;;;48.90;;
11835;SDS011;5977;51.972;7.640;2023-05-10T07:47:40;148.90;;;49.13;;
11835;SDS011;5977;51.972;7.640;2023-05-10T07:50:08;148.60;;;49.10;;
11835;SDS011;5977;51.972;7.640;2023-05-10T07:52:37;148.97;;;48.97;;
11835;SDS011;5977;51.972;7.640;2023-05-10T07:55:06;149.47;;;49.67;;
11835;SDS011;5977;51.972;7.640;2023-05-10T07:57:34;149.40;;;49.50;;
11835;SDS011;5977;51.972;7.640;2023-05-10T08:00:02;149.87;;;50.10;;
11835;SDS011;5977;51.972;7.640;2023-05-10T08:02:38;149.30;;;49.63;;
11835;SDS011;5977;51.972;7.640;2023-05-10T08:05:06;149.40;;;49.70;;
11835;SDS011;5977;51.972;7.640;2023-05-10T08:07:34;149.90;;;50.03;;
11835;SDS011;5977;51.972;7.640;2023-05-10T08:10:04;150.23;;;50.17;;
11835;SDS011;5977;51.972;7.640;2023-05-10T08:12:33;149.83;;;50.07;;
11835;SDS011;5977;51.972;7.640;2023-05-10T08:15:01;149.73;;;49.83;;
11835;SDS011;5977;51.972;7.640;2023-05-10T08:17:29;149.90;;;50.07;;
11835;SDS011;5977;51.972;7.640;2023-05-10T08:19:57;150.77;;;50.50;;
11835;SDS011;5977;51.972;7.640;2023-05-10T08:22:25;149.77;;;49.90;;
11835;SDS011;5977;51.972;7.640;2023-05-10T08:24:53;150.13;;;50.57;;
11835;SDS011;5977;51.972;7.640;2023-05-10T08:27:22;150.90;;;51.00;;
11835;SDS011;5977;51.972;7.640;2023-05-10T08:29:50;150.57;;;50.47;;
11835;SDS011;5977;51.972;7.640;2023-05-10T08:32:18;151.90;;;51.27;;
11835;SDS011;5977;51.972;7.640;2023-05-10T08:34:46;150.67;;;50.43;;
11835;SDS011;5977;51.972;7.640;2023-05-10T08:37:14;150.63;;;50.33;;
11835;SDS011;5977;51.972;7.640;2023-05-10T08:39:42;150.83;;;50.60;;
11835;SDS011;5977;51.972;7.640;2023-05-10T08:42:11;151.30;;;50.83;;
11835;SDS011;5977;51.972;7.640;2023-05-10T08:44:44;149.93;;;50.07;;
11835;SDS011;5977;51.972;7.640;2023-05-10T08:47:15;150.70;;;50.27;;
11835;SDS011;5977;51.972;7.640;2023-05-10T08:49:45;150.73;;;50.43;;
11835;SDS011;5977;51.972;7.640;2023-05-10T08:52:15;150.60;;;50.37;;
11835;SDS011;5977;51.972;7.640;2023-05-10T08:54:44;151.00;;;50.63;;
11835;SDS011;5977;51.972;7.640;2023-05-10T08:57:12;151.03;;;50.47;;
11835;SDS011;5977;51.972;7.640;2023-05-10T08:59:40;150.70;;;50.57;;
11835;SDS011;5977;51.972;7.640;2023-05-10T09:02:10;150.80;;;50.50;;
11835;SDS011;5977;51.972;7.640;2023-05-10T09:04:43;150.63;;;50.47;;
11835;SDS011;5977;51.972;7.640;2023-05-10T09:07:12;151.50;;;50.83;;
11835;SDS011;5977;51.972;7.640;2023-05-10T09:09:40;151.10;;;50.60;;
11835;SDS011;5977;51.972;7.640;2023-05-10T09:12:09;150.93;;;50.63;;
11835;SDS011;5977;51.972;7.640;2023-05-10T09:14:38;150.97;;;50.70;;
11835;SDS011;5977;51.972;7.640;2023-05-10T09:17:06;150.93;;;50.37;;
11835;SDS011;5977;51.972;7.640;2023-05-10T09:19:36;150.83;;;50.70;;
11835;SDS011;5977;51.972;7.640;2023-05-10T09:22:03;151.40;;;51.03;;
11835;SDS011;5977;51.972;7.640;2023-05-10T09:24:31;151.10;;;50.80;;
11835;SDS011;5977;51.972;7.640;2023-05-10T09:26:59;151.73;;;51.10;;
11835;SDS011;5977;51.972;7.640;2023-05-10T09:29:38;151.67;;;51.00;;
11835;SDS011;5977;51.972;7.640;2023-05-10T09:32:07;150.80;;;50.60;;
11835;SDS011;5977;51.972;7.640;2023-05-10T09:34:36;150.80;;;50.40;;
11835;SDS011;5977;51.972;7.640;2023-05-10T09:37:06;151.23;;;50.80;;
11835;SDS011;5977;51.972;7.640;2023-05-10T09:39:34;151.50;;;50.87;;
11835;SDS011;5977;51.972;7.640;2023-05-10T09:42:04;151.20;;;50.57;;
11835;SDS011;5977;51.972;7.640;2023-05-10T09:44:33;151.43;;;50.83;;
11835;SDS011;5977;51.972;7.640;2023-05-10T09:47:01;150.70;;;50.10;;
11835;SDS011;5977;51.972;7.640;2023-05-10T09:49:32;151.43;;;50.70;;
11835;SDS011;5977;51.972;7.640;2023-05-10T09:52:02;151.07;;;50.50;;
11835;SDS011;5977;51.972;7.640;2023-05-10T09:54:31;151.37;;;50.67;;
11835;SDS011;5977;51.972;7.640;2023-05-10T09:56:59;151.23;;;50.70;;
11835;SDS011;5977;51.972;7.640;2023-05-10T09:59:28;151.00;;;50.50;;
11835;SDS011;5977;51.972;7.640;2023-05-10T10:01:57;150.77;;;50.17;;
11835;SDS011;5977;51.972;7.640;2023-05-10T10:04:27;151.10;;;50.50;;
11835;SDS011;5977;51.972;7.640;2023-05-10T10:06:58;150.27;;;50.10;;
11835;SDS011;5977;51.972;7.640;2023-05-10T10:09:29;150.67;;;50.27;;
11835;SDS011;5977;51.972;7.640;2023-05-10T10:11:57;151.27;;;50.53;;
11835;SDS011;5977;51.972;7.640;2023-05-10T10:14:25;151.03;;;50.57;;
11835;SDS011;5977;51.972;7.640;2023-05-10T10:16:54;150.67;;;50.40;;
11835;SDS011;5977;51.972;7.640;2023-05-10T10:19:31;151.43;;;50.70;;
11835;SDS011;5977;51.972;7.640;2023-05-10T10:22:00;150.90;;;50.37;;
11835;SDS011;5977;51.972;7.640;2023-05-10T10:24:30;151.70;;;50.93;;
11835;SDS011;5977;51.972;7.640;2023-05-10T10:26:59;150.93;;;50.70;;
11835;SDS011;5977;51.972;7.640;2023-05-10T10:29:36;151.47;;;50.70;;
11835;SDS011;5977;51.972;7.640;2023-05-10T10:32:08;151.20;;;50.83;;
11835;SDS011;5977;51.972;7.640;2023-05-10T10:34:46;150.73;;;50.50;;
11835;SDS011;5977;51.972;7.640;2023-05-10T10:37:14;150.90;;;50.83;;
11835;SDS011;5977;51.972;7.640;2023-05-10T10:39:44;151.10;;;51.03;;
11835;SDS011;5977;51.972;7.640;2023-05-10T10:42:15;151.60;;;51.13;;
11835;SDS011;5977;51.972;7.640;2023-05-10T10:45:11;151.47;;;50.97;;
11835;SDS011;5977;51.972;7.640;2023-05-10T10:47:40;151.60;;;51.20;;
11835;SDS011;5977;51.972;7.640;2023-05-10T10:50:09;152.43;;;51.63;;
11835;SDS011;5977;51.972;7.640;2023-05-10T10:52:39;152.17;;;51.67;;
11835;SDS011;5977;51.972;7.640;2023-05-10T10:55:10;151.50;;;50.93;;
11835;SDS011;5977;51.972;7.640;2023-05-10T10:57:43;152.10;;;51.43;;
11835;SDS011;5977;51.972;7.640;2023-05-10T11:00:23;152.17;;;51.37;;
11835;SDS011;5977;51.972;7.640;2023-05-10T11:02:53;151.90;;;51.27;;
11835;SDS011;5977;51.972;7.640;2023-05-10T11:08:11;152.57;;;51.43;;
11835;SDS011;5977;51.972;7.640;2023-05-10T11:10:53;151.37;;;50.80;;
11835;SDS011;5977;51.972;7.640;2023-05-10T11:13:31;151.77;;;51.27;;
11835;SDS011;5977;51.972;7.640;2023-05-10T11:16:09;151.47;;;51.07;;
11835;SDS011;5977;51.972;7.640;2023-05-10T11:18:51;151.90;;;51.30;;
11835;SDS011;5977;51.972;7.640;2023-05-10T11:21:21;152.10;;;51.23;;
11835;SDS011;5977;51.972;7.640;2023-05-10T11:23:49;152.17;;;51.47;;
11835;SDS011;5977;51.972;7.640;2023-05-10T11:26:20;152.07;;;51.27;;
11835;SDS011;5977;51.972;7.640;2023-05-10T11:28:51;152.57;;;51.47;;
11835;SDS011;5977;51.972;7.640;2023-05-10T11:31:22;152.50;;;51.37;;
11835;SDS011;5977;51.972;7.640;2023-05-10T11:33:53;151.80;;;51.13;;
11835;SDS011;5977;51.972;7.640;2023-05-10T11:36:23;152.40;;;51.13;;
11835;SDS011;5977;51.972;7.640;2023-05-10T11:38:59;151.77;;;51.20;;
11835;SDS011;5977;51.972;7.640;2023-05-10T11:41:29;151.87;;;51.03;;
11835;SDS011;5977;51.972;7.640;2023-05-10T11:43:58;152.27;;;51.10;;
11835;SDS011;5977;51.972;7.640;2023-05-10T11:46:27;151.60;;;50.80;;
11835;SDS011;5977;51.972;7.640;2023-05-10T11:48:57;150.83;;;50.37;;
11835;SDS011;5977;51.972;7.640;2023-05-10T11:51:28;151.43;;;50.67;;
11835;SDS011;5977;51.972;7.640;2023-05-10T11:53:56;151.93;;;50.97;;
11835;SDS011;5977;51.972;7.640;2023-05-10T11:56:24;151.23;;;50.67;;
11835;SDS011;5977;51.972;7.640;2023-05-10T11:58:55;151.83;;;51.17;;
11835;SDS011;5977;51.972;7.640;2023-05-10T12:01:24;152.17;;;51.23;;
11835;SDS011;5977;51.972;7.640;2023-05-10T12:03:54;152.03;;;51.07;;
11835;SDS011;5977;51.972;7.640;2023-05-10T12:06:26;152.13;;;51.30;;
11835;SDS011;5977;51.972;7.640;2023-05-10T12:08:54;152.27;;;51.37;;
11835;SDS011;5977;51.972;7.640;2023-05-10T12:11:24;152.07;;;51.40;;
11835;SDS011;5977;51.972;7.640;2023-05-10T12:13:55;152.03;;;51.20;;
11835;SDS011;5977;51.972;7.640;2023-05-10T12:16:24;151.73;;;51.07;;
11835;SDS011;5977;51.972;7.640;2023-05-10T12:18:56;151.80;;;50.97;;
11835;SDS011;5977;51.972;7.640;2023-05-10T12:21:26;152.47;;;51.43;;
11835;SDS011;5977;51.972;7.640;2023-05-10T12:23:59;152.57;;;51.40;;
11835;SDS011;5977;51.972;7.640;2023-05-10T12:26:28;152.23;;;51.20;;
11835;SDS011;5977;51.972;7.640;2023-05-10T12:31:53;152.37;;;51.17;;
11835;SDS011;5977;51.972;7.640;2023-05-10T12:34:22;151.97;;;51.03;;
11835;SDS011;5977;51.972;7.640;2023-05-10T12:36:53;151.67;;;50.83;;
11835;SDS011;5977;51.972;7.640;2023-05-10T12:39:25;152.37;;;51.13;;
11835;SDS011;5977;51.972;7.640;2023-05-10T12:41:53;152.40;;;51.27;;
11835;SDS011;5977;51.972;7.640;2023-05-10T12:44:21;151.50;;;50.73;;
11835;SDS011;5977;51.972;7.640;2023-05-10T12:46:49;150.53;;;50.23;;
11835;SDS011;5977;51.972;7.640;2023-05-10T12:49:18;151.60;;;51.10;;
11835;SDS011;5977;51.972;7.640;2023-05-10T12:51:46;152.43;;;51.33;;
11835;SDS011;5977;51.972;7.640;2023-05-10T12:54:14;151.83;;;50.87;;
11835;SDS011;5977;51.972;7.640;2023-05-10T12:56:42;151.93;;;51.07;;
11835;SDS011;5977;51.972;7.640;2023-05-10T12:59:10;151.67;;;51.20;;
11835;SDS011;5977;51.972;7.640;2023-05-10T13:01:38;151.73;;;50.87;;
11835;SDS011;5977;51.972;7.640;2023-05-10T13:04:06;151.97;;;51.30;;
11835;SDS011;5977;51.972;7.640;2023-05-10T13:06:35;152.37;;;51.37;;
11835;SDS011;5977;51.972;7.640;2023-05-10T13:09:03;151.90;;;51.13;;
11835;SDS011;5977;51.972;7.640;2023-05-10T13:11:31;151.57;;;50.83;;
11835;SDS011;5977;51.972;7.640;2023-05-10T13:13:59;151.17;;;50.83;;
11835;SDS011;5977;51.972;7.640;2023-05-10T13:16:29;151.67;;;50.73;;
11835;SDS011;5977;51.972;7.640;2023-05-10T13:18:57;151.70;;;50.87;;
11835;SDS011;5977;51.972;7.640;2023-05-10T13:21:25;150.90;;;50.20;;
11835;SDS011;5977;51.972;7.640;2023-05-10T13:23:55;151.53;;;50.83;;
11835;SDS011;5977;51.972;7.640;2023-05-10T13:26:23;151.53;;;50.73;;
11835;SDS011;5977;51.972;7.640;2023-05-10T13:28:51;151.97;;;50.83;;
11835;SDS011;5977;51.972;7.640;2023-05-10T13:31:22;151.53;;;50.80;;
11835;SDS011;5977;51.972;7.640;2023-05-10T13:33:49;151.80;;;50.83;;
11835;SDS011;5977;51.972;7.640;2023-05-10T13:36:17;151.13;;;50.40;;
11835;SDS011;5977;51.972;7.640;2023-05-10T13:38:48;151.13;;;50.27;;
11835;SDS011;5977;51.972;7.640;2023-05-10T13:41:18;151.23;;;50.40;;
11835;SDS011;5977;51.972;7.640;2023-05-10T13:43:46;150.57;;;50.17;;
11835;SDS011;5977;51.972;7.640;2023-05-10T13:46:15;152.10;;;50.77;;
11835;SDS011;5977;51.972;7.640;2023-05-10T13:48:43;151.13;;;50.50;;
11835;SDS011;5977;51.972;7.640;2023-05-10T13:51:11;151.17;;;50.37;;
11835;SDS011;5977;51.972;7.640;2023-05-10T13:53:38;151.03;;;50.50;;
11835;SDS011;5977;51.972;7.640;2023-05-10T13:56:06;151.37;;;50.43;;
11835;SDS011;5977;51.972;7.640;2023-05-10T13:58:36;150.57;;;49.97;;
11835;SDS011;5977;51.972;7.640;2023-05-10T14:01:03;151.10;;;50.37;;
11835;SDS011;5977;51.972;7.640;2023-05-10T14:03:31;151.33;;;50.43;;
11835;SDS011;5977;51.972;7.640;2023-05-10T14:05:59;151.03;;;50.47;;
11835;SDS011;5977;51.972;7.640;2023-05-10T14:08:28;150.97;;;50.30;;
11835;SDS011;5977;51.972;7.640;2023-05-10T14:10:56;151.10;;;50.57;;
11835;SDS011;5977;51.972;7.640;2023-05-10T14:13:24;151.13;;;50.47;;
11835;SDS011;5977;51.972;7.640;2023-05-10T14:15:53;151.80;;;50.77;;
11835;SDS011;5977;51.972;7.640;2023-05-10T14:18:21;151.27;;;50.50;;
11835;SDS011;5977;51.972;7.640;2023-05-10T14:20:49;151.30;;;50.57;;
11835;SDS011;5977;51.972;7.640;2023-05-10T14:23:17;151.43;;;50.50;;
11835;SDS011;5977;51.972;7.640;2023-05-10T14:25:50;151.23;;;50.43;;
11835;SDS011;5977;51.972;7.640;2023-05-10T14:28:18;150.80;;;50.30;;
11835;SDS011;5977;51.972;7.640;2023-05-10T14:30:46;150.70;;;50.13;;
11835;SDS011;5977;51.972;7.640;2023-05-10T14:33:17;150.47;;;49.90;;
11835;SDS011;5977;51.972;7.640;2023-05-10T14:35:45;151.07;;;50.33;;
11835;SDS011;5977;51.972;7.640;2023-05-10T14:38:13;150.27;;;49.50;;
11835;SDS011;5977;51.972;7.640;2023-05-10T14:40:41;150.67;;;50.10;;
11835;SDS011;5977;51.972;7.640;2023-05-10T14:43:10;150.90;;;50.20;;